sensor_id;sensor_type;location;lat;lon;timestamp;P1;durP1;ratioP1;P2;durP2;ratioP2
29728;SDS011;20055;51.498;11.960;2024-03-29T00:01:17;3.83;;;1.60;;
29728;SDS011;20055;51.498;11.960;2024-03-29T00:03:43;6.97;;;1.77;;
29728;SDS011;20055;51.498;11.960;2024-03-29T00:06:10;4.47;;;1.42;;
29728;SDS011;20055;51.498;11.960;2024-03-29T00:08:37;2.95;;;1.42;;
29728;SDS011;20055;51.498;11.960;2024-03-29T00:11:03;10.10;;;1.70;;
29728;SDS011;20055;51.498;11.960;2024-03-29T00:13:29;2.72;;;1.35;;
29728;SDS011;20055;51.498;11.960;2024-03-29T00:15:56;4.38;;;1.55;;
29728;SDS011;20055;51.498;11.960;2024-03-29T00:18:22;3.47;;;1.40;;
29728;SDS011;20055;51.498;11.960;2024-03-29T00:20:48;5.10;;;1.65;;
29728;SDS011;20055;51.498;11.960;2024-03-29T00:23:15;3.78;;;1.20;;
29728;SDS011;20055;51.498;11.960;2024-03-29T00:25:41;4.60;;;1.40;;
29728;SDS011;20055;51.498;11.960;2024-03-29T00:28:07;3.83;;;1.00;;
29728;SDS011;20055;51.498;11.960;2024-03-29T00:30:33;6.03;;;1.38;;
29728;SDS011;20055;51.498;11.960;2024-03-29T00:32:59;6.97;;;1.38;;
29728;SDS011;20055;51.498;11.960;2024-03-29T00:35:25;2.97;;;1.50;;
29728;SDS011;20055;51.498;11.960;2024-03-29T00:37:52;6.72;;;1.45;;
29728;SDS011;20055;51.498;11.960;2024-03-29T00:40:18;2.80;;;1.20;;
29728;SDS011;20055;51.498;11.960;2024-03-29T00:42:44;3.58;;;1.20;;
29728;SDS011;20055;51.498;11.960;2024-03-29T00:45:11;7.97;;;1.48;;
29728;SDS011;20055;51.498;11.960;2024-03-29T00:47:37;5.38;;;1.63;;
29728;SDS011;20055;51.498;11.960;2024-03-29T00:50:03;5.15;;;1.30;;
29728;SDS011;20055;51.498;11.960;2024-03-29T00:52:29;4.82;;;1.40;;
29728;SDS011;20055;51.498;11.960;2024-03-29T00:54:56;3.03;;;1.20;;
29728;SDS011;20055;51.498;11.960;2024-03-29T00:57:22;5.10;;;1.27;;
29728;SDS011;20055;51.498;11.960;2024-03-29T00:59:48;7.30;;;1.40;;
29728;SDS011;20055;51.498;11.960;2024-03-29T01:02:14;4.60;;;1.40;;
29728;SDS011;20055;51.498;11.960;2024-03-29T01:04:41;2.47;;;1.35;;
29728;SDS011;20055;51.498;11.960;2024-03-29T01:07:07;5.47;;;1.45;;
29728;SDS011;20055;51.498;11.960;2024-03-29T01:09:33;4.55;;;1.33;;
29728;SDS011;20055;51.498;11.960;2024-03-29T01:11:59;7.20;;;1.48;;
29728;SDS011;20055;51.498;11.960;2024-03-29T01:14:25;9.75;;;1.52;;
29728;SDS011;20055;51.498;11.960;2024-03-29T01:16:52;5.03;;;2.42;;
29728;SDS011;20055;51.498;11.960;2024-03-29T01:19:18;3.63;;;1.08;;
29728;SDS011;20055;51.498;11.960;2024-03-29T01:21:44;2.05;;;1.23;;
29728;SDS011;20055;51.498;11.960;2024-03-29T01:24:11;6.15;;;1.45;;
29728;SDS011;20055;51.498;11.960;2024-03-29T01:26:37;6.07;;;1.17;;
29728;SDS011;20055;51.498;11.960;2024-03-29T01:29:03;4.22;;;1.20;;
29728;SDS011;20055;51.498;11.960;2024-03-29T01:31:29;2.42;;;1.25;;
29728;SDS011;20055;51.498;11.960;2024-03-29T01:33:55;6.53;;;1.30;;
29728;SDS011;20055;51.498;11.960;2024-03-29T01:36:24;5.53;;;1.65;;
29728;SDS011;20055;51.498;11.960;2024-03-29T01:38:50;6.30;;;1.63;;
29728;SDS011;20055;51.498;11.960;2024-03-29T01:41:20;3.97;;;1.70;;
29728;SDS011;20055;51.498;11.960;2024-03-29T01:43:46;5.75;;;1.63;;
29728;SDS011;20055;51.498;11.960;2024-03-29T01:46:12;17.50;;;2.55;;
29728;SDS011;20055;51.498;11.960;2024-03-29T01:48:38;7.72;;;2.58;;
29728;SDS011;20055;51.498;11.960;2024-03-29T01:51:05;10.35;;;2.55;;
29728;SDS011;20055;51.498;11.960;2024-03-29T01:53:31;12.52;;;2.83;;
29728;SDS011;20055;51.498;11.960;2024-03-29T01:55:58;4.57;;;2.10;;
29728;SDS011;20055;51.498;11.960;2024-03-29T01:58:26;5.18;;;2.00;;
29728;SDS011;20055;51.498;11.960;2024-03-29T02:00:57;6.72;;;1.85;;
29728;SDS011;20055;51.498;11.960;2024-03-29T02:03:25;4.38;;;1.65;;
29728;SDS011;20055;51.498;11.960;2024-03-29T02:05:51;8.02;;;1.48;;
29728;SDS011;20055;51.498;11.960;2024-03-29T02:08:19;4.00;;;1.55;;
29728;SDS011;20055;51.498;11.960;2024-03-29T02:10:46;4.30;;;1.52;;
29728;SDS011;20055;51.498;11.960;2024-03-29T02:13:13;4.63;;;1.73;;
29728;SDS011;20055;51.498;11.960;2024-03-29T02:15:39;2.88;;;1.27;;
29728;SDS011;20055;51.498;11.960;2024-03-29T02:18:06;6.20;;;1.80;;
29728;SDS011;20055;51.498;11.960;2024-03-29T02:20:33;4.03;;;1.30;;
29728;SDS011;20055;51.498;11.960;2024-03-29T02:23:13;10.05;;;2.00;;
29728;SDS011;20055;51.498;11.960;2024-03-29T02:25:43;9.30;;;1.40;;
29728;SDS011;20055;51.498;11.960;2024-03-29T02:28:10;4.45;;;1.48;;
29728;SDS011;20055;51.498;11.960;2024-03-29T02:30:39;3.35;;;1.50;;
29728;SDS011;20055;51.498;11.960;2024-03-29T02:33:05;4.95;;;1.33;;
29728;SDS011;20055;51.498;11.960;2024-03-29T02:35:31;8.02;;;1.40;;
29728;SDS011;20055;51.498;11.960;2024-03-29T02:37:57;5.78;;;1.40;;
29728;SDS011;20055;51.498;11.960;2024-03-29T02:40:24;5.65;;;2.10;;
29728;SDS011;20055;51.498;11.960;2024-03-29T02:42:50;4.05;;;1.60;;
29728;SDS011;20055;51.498;11.960;2024-03-29T02:45:16;5.13;;;1.20;;
29728;SDS011;20055;51.498;11.960;2024-03-29T02:47:43;6.50;;;1.20;;
29728;SDS011;20055;51.498;11.960;2024-03-29T02:50:10;6.80;;;1.88;;
29728;SDS011;20055;51.498;11.960;2024-03-29T02:52:38;8.10;;;1.40;;
29728;SDS011;20055;51.498;11.960;2024-03-29T02:55:05;5.43;;;1.40;;
29728;SDS011;20055;51.498;11.960;2024-03-29T02:57:31;4.00;;;1.50;;
29728;SDS011;20055;51.498;11.960;2024-03-29T02:59:57;6.07;;;1.55;;
29728;SDS011;20055;51.498;11.960;2024-03-29T03:02:23;6.25;;;1.88;;
29728;SDS011;20055;51.498;11.960;2024-03-29T03:04:50;7.13;;;1.60;;
29728;SDS011;20055;51.498;11.960;2024-03-29T03:07:16;4.45;;;1.95;;
29728;SDS011;20055;51.498;11.960;2024-03-29T03:10:01;5.28;;;1.70;;
29728;SDS011;20055;51.498;11.960;2024-03-29T03:12:45;4.95;;;1.73;;
29728;SDS011;20055;51.498;11.960;2024-03-29T03:15:12;5.55;;;2.10;;
29728;SDS011;20055;51.498;11.960;2024-03-29T03:17:38;6.43;;;1.73;;
29728;SDS011;20055;51.498;11.960;2024-03-29T03:20:04;4.25;;;1.35;;
29728;SDS011;20055;51.498;11.960;2024-03-29T03:22:32;6.63;;;1.48;;
29728;SDS011;20055;51.498;11.960;2024-03-29T03:24:58;6.38;;;1.52;;
29728;SDS011;20055;51.498;11.960;2024-03-29T03:27:25;3.55;;;1.20;;
29728;SDS011;20055;51.498;11.960;2024-03-29T03:29:51;4.10;;;1.50;;
29728;SDS011;20055;51.498;11.960;2024-03-29T03:32:17;7.22;;;1.70;;
29728;SDS011;20055;51.498;11.960;2024-03-29T03:34:43;5.32;;;1.95;;
29728;SDS011;20055;51.498;11.960;2024-03-29T03:37:09;4.40;;;1.35;;
29728;SDS011;20055;51.498;11.960;2024-03-29T03:39:36;6.63;;;1.58;;
29728;SDS011;20055;51.498;11.960;2024-03-29T03:42:03;8.27;;;2.22;;
29728;SDS011;20055;51.498;11.960;2024-03-29T03:44:29;4.88;;;1.40;;
29728;SDS011;20055;51.498;11.960;2024-03-29T03:46:55;6.95;;;2.10;;
29728;SDS011;20055;51.498;11.960;2024-03-29T03:49:21;10.60;;;2.00;;
29728;SDS011;20055;51.498;11.960;2024-03-29T03:51:48;7.88;;;1.70;;
29728;SDS011;20055;51.498;11.960;2024-03-29T03:54:14;3.38;;;1.63;;
29728;SDS011;20055;51.498;11.960;2024-03-29T03:56:40;4.35;;;1.48;;
29728;SDS011;20055;51.498;11.960;2024-03-29T03:59:06;7.75;;;1.50;;
29728;SDS011;20055;51.498;11.960;2024-03-29T04:01:34;8.73;;;2.10;;
29728;SDS011;20055;51.498;11.960;2024-03-29T04:04:00;4.03;;;1.42;;
29728;SDS011;20055;51.498;11.960;2024-03-29T04:06:26;4.40;;;1.20;;
29728;SDS011;20055;51.498;11.960;2024-03-29T04:08:53;3.55;;;1.38;;
29728;SDS011;20055;51.498;11.960;2024-03-29T04:11:20;6.00;;;1.27;;
29728;SDS011;20055;51.498;11.960;2024-03-29T04:13:46;6.05;;;2.33;;
29728;SDS011;20055;51.498;11.960;2024-03-29T04:16:12;8.07;;;1.30;;
29728;SDS011;20055;51.498;11.960;2024-03-29T04:18:38;2.35;;;1.20;;
29728;SDS011;20055;51.498;11.960;2024-03-29T04:21:04;3.65;;;1.67;;
29728;SDS011;20055;51.498;11.960;2024-03-29T04:23:31;7.97;;;1.45;;
29728;SDS011;20055;51.498;11.960;2024-03-29T04:25:58;7.93;;;1.50;;
29728;SDS011;20055;51.498;11.960;2024-03-29T04:28:25;5.25;;;1.50;;
29728;SDS011;20055;51.498;11.960;2024-03-29T04:30:53;5.57;;;1.52;;
29728;SDS011;20055;51.498;11.960;2024-03-29T04:33:22;4.13;;;1.70;;
29728;SDS011;20055;51.498;11.960;2024-03-29T04:35:56;4.45;;;1.42;;
29728;SDS011;20055;51.498;11.960;2024-03-29T04:38:24;4.00;;;1.75;;
29728;SDS011;20055;51.498;11.960;2024-03-29T04:40:51;8.50;;;1.70;;
29728;SDS011;20055;51.498;11.960;2024-03-29T04:43:22;5.80;;;1.42;;
29728;SDS011;20055;51.498;11.960;2024-03-29T04:45:50;9.30;;;1.55;;
29728;SDS011;20055;51.498;11.960;2024-03-29T04:48:27;5.25;;;1.27;;
29728;SDS011;20055;51.498;11.960;2024-03-29T04:50:53;3.30;;;1.20;;
29728;SDS011;20055;51.498;11.960;2024-03-29T04:53:19;4.80;;;1.30;;
29728;SDS011;20055;51.498;11.960;2024-03-29T04:55:45;3.10;;;1.48;;
29728;SDS011;20055;51.498;11.960;2024-03-29T04:58:13;5.25;;;1.58;;
29728;SDS011;20055;51.498;11.960;2024-03-29T05:00:42;1.73;;;1.10;;
29728;SDS011;20055;51.498;11.960;2024-03-29T05:03:08;4.72;;;1.50;;
29728;SDS011;20055;51.498;11.960;2024-03-29T05:05:34;5.05;;;1.73;;
29728;SDS011;20055;51.498;11.960;2024-03-29T05:08:00;2.65;;;1.20;;
29728;SDS011;20055;51.498;11.960;2024-03-29T05:10:27;5.82;;;1.33;;
29728;SDS011;20055;51.498;11.960;2024-03-29T05:12:53;3.60;;;1.20;;
29728;SDS011;20055;51.498;11.960;2024-03-29T05:15:20;6.00;;;1.20;;
29728;SDS011;20055;51.498;11.960;2024-03-29T05:17:46;2.42;;;1.25;;
29728;SDS011;20055;51.498;11.960;2024-03-29T05:20:12;5.88;;;1.40;;
29728;SDS011;20055;51.498;11.960;2024-03-29T05:22:38;5.32;;;1.42;;
29728;SDS011;20055;51.498;11.960;2024-03-29T05:25:04;7.32;;;1.67;;
29728;SDS011;20055;51.498;11.960;2024-03-29T05:27:33;4.63;;;1.67;;
29728;SDS011;20055;51.498;11.960;2024-03-29T05:29:59;9.15;;;1.52;;
29728;SDS011;20055;51.498;11.960;2024-03-29T05:32:25;5.45;;;1.33;;
29728;SDS011;20055;51.498;11.960;2024-03-29T05:34:51;5.40;;;1.42;;
29728;SDS011;20055;51.498;11.960;2024-03-29T05:37:17;4.78;;;2.25;;
29728;SDS011;20055;51.498;11.960;2024-03-29T05:39:44;7.70;;;1.42;;
29728;SDS011;20055;51.498;11.960;2024-03-29T05:42:10;8.02;;;1.98;;
29728;SDS011;20055;51.498;11.960;2024-03-29T05:44:37;5.82;;;1.48;;
29728;SDS011;20055;51.498;11.960;2024-03-29T05:47:04;6.28;;;1.50;;
29728;SDS011;20055;51.498;11.960;2024-03-29T05:49:33;3.67;;;1.65;;
29728;SDS011;20055;51.498;11.960;2024-03-29T05:51:59;6.15;;;1.75;;
29728;SDS011;20055;51.498;11.960;2024-03-29T05:54:25;6.32;;;1.80;;
29728;SDS011;20055;51.498;11.960;2024-03-29T05:56:52;4.43;;;1.40;;
29728;SDS011;20055;51.498;11.960;2024-03-29T05:59:18;6.22;;;1.50;;
29728;SDS011;20055;51.498;11.960;2024-03-29T06:01:44;6.45;;;1.50;;
29728;SDS011;20055;51.498;11.960;2024-03-29T06:04:10;5.07;;;1.70;;
29728;SDS011;20055;51.498;11.960;2024-03-29T06:06:44;8.07;;;1.75;;
29728;SDS011;20055;51.498;11.960;2024-03-29T06:09:10;5.53;;;1.52;;
29728;SDS011;20055;51.498;11.960;2024-03-29T06:11:37;7.32;;;1.60;;
29728;SDS011;20055;51.498;11.960;2024-03-29T06:14:04;2.03;;;1.40;;
29728;SDS011;20055;51.498;11.960;2024-03-29T06:16:33;6.57;;;1.83;;
29728;SDS011;20055;51.498;11.960;2024-03-29T06:19:18;3.45;;;1.40;;
29728;SDS011;20055;51.498;11.960;2024-03-29T06:21:44;4.03;;;1.40;;
29728;SDS011;20055;51.498;11.960;2024-03-29T06:24:10;4.22;;;1.42;;
29728;SDS011;20055;51.498;11.960;2024-03-29T06:26:40;5.10;;;1.98;;
29728;SDS011;20055;51.498;11.960;2024-03-29T06:29:07;6.50;;;1.85;;
29728;SDS011;20055;51.498;11.960;2024-03-29T06:31:35;9.65;;;2.15;;
29728;SDS011;20055;51.498;11.960;2024-03-29T06:34:01;5.63;;;1.83;;
29728;SDS011;20055;51.498;11.960;2024-03-29T06:36:28;7.30;;;1.60;;
29728;SDS011;20055;51.498;11.960;2024-03-29T06:38:56;2.92;;;1.40;;
29728;SDS011;20055;51.498;11.960;2024-03-29T06:41:22;4.72;;;1.95;;
29728;SDS011;20055;51.498;11.960;2024-03-29T06:43:48;3.88;;;1.73;;
29728;SDS011;20055;51.498;11.960;2024-03-29T06:46:15;5.78;;;1.70;;
29728;SDS011;20055;51.498;11.960;2024-03-29T06:48:41;7.47;;;2.03;;
29728;SDS011;20055;51.498;11.960;2024-03-29T06:51:07;3.72;;;1.95;;
29728;SDS011;20055;51.498;11.960;2024-03-29T06:53:33;6.93;;;2.03;;
29728;SDS011;20055;51.498;11.960;2024-03-29T06:56:00;3.95;;;1.80;;
29728;SDS011;20055;51.498;11.960;2024-03-29T06:58:27;4.05;;;1.63;;
29728;SDS011;20055;51.498;11.960;2024-03-29T07:00:53;9.20;;;1.80;;
29728;SDS011;20055;51.498;11.960;2024-03-29T07:03:20;8.50;;;2.22;;
29728;SDS011;20055;51.498;11.960;2024-03-29T07:05:46;4.40;;;1.95;;
29728;SDS011;20055;51.498;11.960;2024-03-29T07:08:13;6.18;;;2.00;;
29728;SDS011;20055;51.498;11.960;2024-03-29T07:10:39;5.70;;;2.30;;
29728;SDS011;20055;51.498;11.960;2024-03-29T07:13:08;5.20;;;2.00;;
29728;SDS011;20055;51.498;11.960;2024-03-29T07:15:35;5.28;;;2.40;;
29728;SDS011;20055;51.498;11.960;2024-03-29T07:18:02;6.38;;;1.80;;
29728;SDS011;20055;51.498;11.960;2024-03-29T07:20:29;3.60;;;1.40;;
29728;SDS011;20055;51.498;11.960;2024-03-29T07:22:55;5.38;;;1.77;;
29728;SDS011;20055;51.498;11.960;2024-03-29T07:25:21;5.03;;;1.60;;
29728;SDS011;20055;51.498;11.960;2024-03-29T07:27:48;6.40;;;2.67;;
29728;SDS011;20055;51.498;11.960;2024-03-29T07:30:15;3.58;;;1.95;;
29728;SDS011;20055;51.498;11.960;2024-03-29T07:32:42;4.97;;;2.60;;
29728;SDS011;20055;51.498;11.960;2024-03-29T07:35:09;4.57;;;2.10;;
29728;SDS011;20055;51.498;11.960;2024-03-29T07:37:35;6.88;;;1.65;;
29728;SDS011;20055;51.498;11.960;2024-03-29T07:40:02;2.72;;;1.30;;
29728;SDS011;20055;51.498;11.960;2024-03-29T07:42:29;6.32;;;1.80;;
29728;SDS011;20055;51.498;11.960;2024-03-29T07:44:55;7.13;;;1.90;;
29728;SDS011;20055;51.498;11.960;2024-03-29T07:47:21;3.53;;;1.58;;
29728;SDS011;20055;51.498;11.960;2024-03-29T07:49:51;5.05;;;1.63;;
29728;SDS011;20055;51.498;11.960;2024-03-29T07:52:17;3.50;;;1.90;;
29728;SDS011;20055;51.498;11.960;2024-03-29T07:54:45;4.82;;;2.00;;
29728;SDS011;20055;51.498;11.960;2024-03-29T07:57:11;4.75;;;2.00;;
29728;SDS011;20055;51.498;11.960;2024-03-29T07:59:40;3.58;;;1.50;;
29728;SDS011;20055;51.498;11.960;2024-03-29T08:02:07;7.93;;;2.05;;
29728;SDS011;20055;51.498;11.960;2024-03-29T08:04:33;3.40;;;1.23;;
29728;SDS011;20055;51.498;11.960;2024-03-29T08:07:00;4.60;;;1.63;;
29728;SDS011;20055;51.498;11.960;2024-03-29T08:09:26;4.65;;;2.67;;
29728;SDS011;20055;51.498;11.960;2024-03-29T08:11:52;4.10;;;1.83;;
29728;SDS011;20055;51.498;11.960;2024-03-29T08:14:18;2.97;;;1.35;;
29728;SDS011;20055;51.498;11.960;2024-03-29T08:16:45;1.58;;;1.38;;
29728;SDS011;20055;51.498;11.960;2024-03-29T08:19:11;5.38;;;1.73;;
29728;SDS011;20055;51.498;11.960;2024-03-29T08:21:37;11.77;;;2.30;;
29728;SDS011;20055;51.498;11.960;2024-03-29T08:24:03;5.22;;;1.75;;
29728;SDS011;20055;51.498;11.960;2024-03-29T08:26:30;3.72;;;1.70;;
29728;SDS011;20055;51.498;11.960;2024-03-29T08:28:56;6.03;;;1.80;;
29728;SDS011;20055;51.498;11.960;2024-03-29T08:31:23;5.45;;;1.90;;
29728;SDS011;20055;51.498;11.960;2024-03-29T08:33:50;3.92;;;2.00;;
29728;SDS011;20055;51.498;11.960;2024-03-29T08:36:17;3.88;;;2.10;;
29728;SDS011;20055;51.498;11.960;2024-03-29T08:38:43;4.43;;;2.50;;
29728;SDS011;20055;51.498;11.960;2024-03-29T08:41:12;3.13;;;1.70;;
29728;SDS011;20055;51.498;11.960;2024-03-29T08:43:38;6.65;;;1.85;;
29728;SDS011;20055;51.498;11.960;2024-03-29T08:46:04;3.05;;;1.90;;
29728;SDS011;20055;51.498;11.960;2024-03-29T08:48:30;4.32;;;2.13;;
29728;SDS011;20055;51.498;11.960;2024-03-29T08:50:57;2.83;;;1.80;;
29728;SDS011;20055;51.498;11.960;2024-03-29T08:53:23;4.75;;;2.00;;
29728;SDS011;20055;51.498;11.960;2024-03-29T08:55:51;4.22;;;1.77;;
29728;SDS011;20055;51.498;11.960;2024-03-29T08:58:17;2.67;;;1.80;;
29728;SDS011;20055;51.498;11.960;2024-03-29T09:00:52;5.05;;;2.25;;
29728;SDS011;20055;51.498;11.960;2024-03-29T09:03:20;3.40;;;1.58;;
29728;SDS011;20055;51.498;11.960;2024-03-29T09:05:47;5.30;;;1.92;;
29728;SDS011;20055;51.498;11.960;2024-03-29T09:08:13;3.42;;;1.92;;
29728;SDS011;20055;51.498;11.960;2024-03-29T09:10:41;4.50;;;1.95;;
29728;SDS011;20055;51.498;11.960;2024-03-29T09:13:07;4.78;;;1.83;;
29728;SDS011;20055;51.498;11.960;2024-03-29T09:15:35;5.90;;;2.70;;
29728;SDS011;20055;51.498;11.960;2024-03-29T09:18:01;6.53;;;2.60;;
29728;SDS011;20055;51.498;11.960;2024-03-29T09:20:36;6.93;;;2.63;;
29728;SDS011;20055;51.498;11.960;2024-03-29T09:23:03;9.90;;;3.60;;
29728;SDS011;20055;51.498;11.960;2024-03-29T09:25:29;3.20;;;1.40;;
29728;SDS011;20055;51.498;11.960;2024-03-29T09:27:57;2.83;;;2.08;;
29728;SDS011;20055;51.498;11.960;2024-03-29T09:30:23;4.35;;;2.33;;
29728;SDS011;20055;51.498;11.960;2024-03-29T09:32:50;7.38;;;2.25;;
29728;SDS011;20055;51.498;11.960;2024-03-29T09:35:19;6.25;;;1.92;;
29728;SDS011;20055;51.498;11.960;2024-03-29T09:37:45;3.00;;;1.77;;
29728;SDS011;20055;51.498;11.960;2024-03-29T09:40:12;6.03;;;2.45;;
29728;SDS011;20055;51.498;11.960;2024-03-29T09:42:39;4.43;;;2.10;;
29728;SDS011;20055;51.498;11.960;2024-03-29T09:45:05;8.52;;;1.60;;
29728;SDS011;20055;51.498;11.960;2024-03-29T09:47:32;3.42;;;1.30;;
29728;SDS011;20055;51.498;11.960;2024-03-29T09:49:59;2.70;;;1.60;;
29728;SDS011;20055;51.498;11.960;2024-03-29T09:52:31;4.90;;;1.38;;
29728;SDS011;20055;51.498;11.960;2024-03-29T09:54:58;5.00;;;1.45;;
29728;SDS011;20055;51.498;11.960;2024-03-29T09:57:27;2.25;;;1.30;;
29728;SDS011;20055;51.498;11.960;2024-03-29T09:59:56;11.40;;;2.00;;
29728;SDS011;20055;51.498;11.960;2024-03-29T10:02:24;2.70;;;1.33;;
29728;SDS011;20055;51.498;11.960;2024-03-29T10:04:54;8.93;;;1.65;;
29728;SDS011;20055;51.498;11.960;2024-03-29T10:07:22;5.53;;;1.70;;
29728;SDS011;20055;51.498;11.960;2024-03-29T10:09:50;5.28;;;1.90;;
29728;SDS011;20055;51.498;11.960;2024-03-29T10:12:16;4.95;;;1.92;;
29728;SDS011;20055;51.498;11.960;2024-03-29T10:14:44;8.73;;;2.30;;
29728;SDS011;20055;51.498;11.960;2024-03-29T10:17:15;7.20;;;2.45;;
29728;SDS011;20055;51.498;11.960;2024-03-29T10:19:42;2.63;;;1.63;;
29728;SDS011;20055;51.498;11.960;2024-03-29T10:22:08;5.82;;;1.83;;
29728;SDS011;20055;51.498;11.960;2024-03-29T10:24:34;8.07;;;1.85;;
29728;SDS011;20055;51.498;11.960;2024-03-29T10:27:03;2.22;;;1.33;;
29728;SDS011;20055;51.498;11.960;2024-03-29T10:29:29;3.58;;;1.45;;
29728;SDS011;20055;51.498;11.960;2024-03-29T10:31:56;3.83;;;1.40;;
29728;SDS011;20055;51.498;11.960;2024-03-29T10:34:24;4.80;;;1.90;;
29728;SDS011;20055;51.498;11.960;2024-03-29T10:36:50;4.32;;;1.90;;
29728;SDS011;20055;51.498;11.960;2024-03-29T10:39:17;4.05;;;1.90;;
29728;SDS011;20055;51.498;11.960;2024-03-29T10:41:44;4.88;;;1.60;;
29728;SDS011;20055;51.498;11.960;2024-03-29T10:44:12;3.17;;;1.63;;
29728;SDS011;20055;51.498;11.960;2024-03-29T10:46:40;1.73;;;1.20;;
29728;SDS011;20055;51.498;11.960;2024-03-29T10:49:10;2.30;;;1.50;;
29728;SDS011;20055;51.498;11.960;2024-03-29T10:51:40;5.50;;;1.50;;
29728;SDS011;20055;51.498;11.960;2024-03-29T10:54:10;2.85;;;1.52;;
29728;SDS011;20055;51.498;11.960;2024-03-29T10:56:37;2.72;;;1.40;;
29728;SDS011;20055;51.498;11.960;2024-03-29T10:59:26;3.03;;;1.63;;
29728;SDS011;20055;51.498;11.960;2024-03-29T11:02:00;2.47;;;1.67;;
29728;SDS011;20055;51.498;11.960;2024-03-29T11:04:33;4.68;;;1.45;;
29728;SDS011;20055;51.498;11.960;2024-03-29T11:07:06;4.20;;;1.90;;
29728;SDS011;20055;51.498;11.960;2024-03-29T11:09:39;7.25;;;1.67;;
29728;SDS011;20055;51.498;11.960;2024-03-29T11:12:06;5.88;;;1.67;;
29728;SDS011;20055;51.498;11.960;2024-03-29T11:14:37;5.63;;;2.03;;
29728;SDS011;20055;51.498;11.960;2024-03-29T11:17:08;7.88;;;2.13;;
29728;SDS011;20055;51.498;11.960;2024-03-29T11:19:38;3.08;;;1.83;;
29728;SDS011;20055;51.498;11.960;2024-03-29T11:22:04;3.50;;;1.80;;
29728;SDS011;20055;51.498;11.960;2024-03-29T11:24:31;2.92;;;1.65;;
29728;SDS011;20055;51.498;11.960;2024-03-29T11:27:09;3.45;;;1.58;;
29728;SDS011;20055;51.498;11.960;2024-03-29T11:29:36;5.00;;;1.80;;
29728;SDS011;20055;51.498;11.960;2024-03-29T11:32:07;3.55;;;1.73;;
29728;SDS011;20055;51.498;11.960;2024-03-29T11:34:34;3.05;;;1.40;;
29728;SDS011;20055;51.498;11.960;2024-03-29T11:37:06;6.07;;;1.75;;
29728;SDS011;20055;51.498;11.960;2024-03-29T11:39:33;7.00;;;1.63;;
29728;SDS011;20055;51.498;11.960;2024-03-29T11:42:01;3.65;;;1.70;;
29728;SDS011;20055;51.498;11.960;2024-03-29T11:44:27;5.03;;;1.80;;
29728;SDS011;20055;51.498;11.960;2024-03-29T11:46:56;7.55;;;1.90;;
29728;SDS011;20055;51.498;11.960;2024-03-29T11:49:24;3.45;;;1.63;;
29728;SDS011;20055;51.498;11.960;2024-03-29T11:51:50;4.47;;;1.63;;
29728;SDS011;20055;51.498;11.960;2024-03-29T11:54:16;3.92;;;1.65;;
29728;SDS011;20055;51.498;11.960;2024-03-29T11:56:42;4.07;;;1.58;;
29728;SDS011;20055;51.498;11.960;2024-03-29T11:59:09;3.90;;;1.50;;
29728;SDS011;20055;51.498;11.960;2024-03-29T12:01:35;2.88;;;1.35;;
29728;SDS011;20055;51.498;11.960;2024-03-29T12:04:04;5.18;;;1.60;;
29728;SDS011;20055;51.498;11.960;2024-03-29T12:06:31;2.05;;;1.20;;
29728;SDS011;20055;51.498;11.960;2024-03-29T12:08:57;4.38;;;1.80;;
29728;SDS011;20055;51.498;11.960;2024-03-29T12:11:25;4.25;;;2.05;;
29728;SDS011;20055;51.498;11.960;2024-03-29T12:13:53;5.38;;;1.52;;
29728;SDS011;20055;51.498;11.960;2024-03-29T12:16:19;2.17;;;1.10;;
29728;SDS011;20055;51.498;11.960;2024-03-29T12:18:46;2.65;;;0.93;;
29728;SDS011;20055;51.498;11.960;2024-03-29T12:21:13;2.97;;;1.30;;
29728;SDS011;20055;51.498;11.960;2024-03-29T12:23:46;2.47;;;1.05;;
29728;SDS011;20055;51.498;11.960;2024-03-29T12:26:14;4.68;;;1.20;;
29728;SDS011;20055;51.498;11.960;2024-03-29T12:28:40;1.52;;;1.02;;
29728;SDS011;20055;51.498;11.960;2024-03-29T12:31:09;1.27;;;0.90;;
29728;SDS011;20055;51.498;11.960;2024-03-29T12:33:35;3.70;;;0.90;;
29728;SDS011;20055;51.498;11.960;2024-03-29T12:36:01;8.02;;;1.00;;
29728;SDS011;20055;51.498;11.960;2024-03-29T12:38:30;1.38;;;0.73;;
29728;SDS011;20055;51.498;11.960;2024-03-29T12:40:59;11.98;;;1.10;;
29728;SDS011;20055;51.498;11.960;2024-03-29T12:43:25;2.17;;;0.80;;
29728;SDS011;20055;51.498;11.960;2024-03-29T12:45:52;3.08;;;0.95;;
29728;SDS011;20055;51.498;11.960;2024-03-29T12:48:22;4.22;;;1.10;;
29728;SDS011;20055;51.498;11.960;2024-03-29T12:50:51;1.20;;;0.80;;
29728;SDS011;20055;51.498;11.960;2024-03-29T12:53:19;2.83;;;1.05;;
29728;SDS011;20055;51.498;11.960;2024-03-29T12:55:46;3.90;;;1.10;;
29728;SDS011;20055;51.498;11.960;2024-03-29T12:58:14;1.50;;;0.80;;
29728;SDS011;20055;51.498;11.960;2024-03-29T13:00:42;3.03;;;1.30;;
29728;SDS011;20055;51.498;11.960;2024-03-29T13:03:08;2.78;;;1.08;;
29728;SDS011;20055;51.498;11.960;2024-03-29T13:05:35;2.75;;;0.60;;
29728;SDS011;20055;51.498;11.960;2024-03-29T13:08:13;2.63;;;0.90;;
29728;SDS011;20055;51.498;11.960;2024-03-29T13:10:43;2.25;;;1.00;;
29728;SDS011;20055;51.498;11.960;2024-03-29T13:13:10;1.65;;;0.77;;
29728;SDS011;20055;51.498;11.960;2024-03-29T13:15:37;2.13;;;0.90;;
29728;SDS011;20055;51.498;11.960;2024-03-29T13:18:04;1.65;;;0.70;;
29728;SDS011;20055;51.498;11.960;2024-03-29T13:20:32;2.42;;;0.95;;
29728;SDS011;20055;51.498;11.960;2024-03-29T13:23:02;2.47;;;0.70;;
29728;SDS011;20055;51.498;11.960;2024-03-29T13:25:28;2.40;;;0.85;;
29728;SDS011;20055;51.498;11.960;2024-03-29T13:27:55;1.00;;;0.80;;
29728;SDS011;20055;51.498;11.960;2024-03-29T13:30:22;3.75;;;1.00;;
29728;SDS011;20055;51.498;11.960;2024-03-29T13:32:49;2.72;;;1.00;;
29728;SDS011;20055;51.498;11.960;2024-03-29T13:35:15;2.17;;;0.82;;
29728;SDS011;20055;51.498;11.960;2024-03-29T13:37:42;2.05;;;0.65;;
29728;SDS011;20055;51.498;11.960;2024-03-29T13:40:11;0.80;;;0.73;;
29728;SDS011;20055;51.498;11.960;2024-03-29T13:42:38;4.07;;;1.00;;
29728;SDS011;20055;51.498;11.960;2024-03-29T13:45:05;2.75;;;1.55;;
29728;SDS011;20055;51.498;11.960;2024-03-29T13:47:41;1.10;;;0.98;;
29728;SDS011;20055;51.498;11.960;2024-03-29T13:50:09;4.75;;;1.90;;
29728;SDS011;20055;51.498;11.960;2024-03-29T13:52:36;1.88;;;1.20;;
29728;SDS011;20055;51.498;11.960;2024-03-29T13:55:04;6.07;;;2.00;;
29728;SDS011;20055;51.498;11.960;2024-03-29T13:57:30;1.00;;;0.85;;
29728;SDS011;20055;51.498;11.960;2024-03-29T13:59:57;2.17;;;1.10;;
29728;SDS011;20055;51.498;11.960;2024-03-29T14:02:24;2.85;;;1.02;;
29728;SDS011;20055;51.498;11.960;2024-03-29T14:04:53;2.25;;;1.10;;
29728;SDS011;20055;51.498;11.960;2024-03-29T14:07:20;4.78;;;0.93;;
29728;SDS011;20055;51.498;11.960;2024-03-29T14:09:46;1.52;;;0.82;;
29728;SDS011;20055;51.498;11.960;2024-03-29T14:12:13;1.55;;;0.80;;
29728;SDS011;20055;51.498;11.960;2024-03-29T14:14:40;2.80;;;0.90;;
29728;SDS011;20055;51.498;11.960;2024-03-29T14:17:09;1.30;;;0.90;;
29728;SDS011;20055;51.498;11.960;2024-03-29T14:19:36;2.17;;;0.88;;
29728;SDS011;20055;51.498;11.960;2024-03-29T14:22:02;3.35;;;1.00;;
29728;SDS011;20055;51.498;11.960;2024-03-29T14:24:30;2.88;;;0.93;;
29728;SDS011;20055;51.498;11.960;2024-03-29T14:26:58;1.35;;;1.10;;
29728;SDS011;20055;51.498;11.960;2024-03-29T14:29:24;1.90;;;1.00;;
29728;SDS011;20055;51.498;11.960;2024-03-29T14:31:50;1.48;;;1.17;;
29728;SDS011;20055;51.498;11.960;2024-03-29T14:34:19;2.45;;;0.80;;